createdAt,value
2018-01-03T09:10:01.770Z,6.89
2018-01-03T09:12:31.038Z,6.91
2018-01-03T09:15:00.291Z,6.91
2018-01-03T09:17:29.451Z,6.94
2018-01-03T09:19:58.628Z,6.97
2018-01-03T09:22:27.819Z,7.02
2018-01-03T09:24:57.162Z,7.08
2018-01-03T09:27:26.367Z,7.13
2018-01-03T09:29:56.337Z,7.16
2018-01-03T09:32:25.554Z,7.23
2018-01-03T09:34:54.882Z,7.32
2018-01-03T09:37:24.061Z,7.33
2018-01-03T09:39:53.333Z,7.34
2018-01-03T09:42:22.524Z,7.34
2018-01-03T09:44:51.738Z,7.42
2018-01-03T09:47:21.015Z,7.45
2018-01-03T09:49:50.218Z,7.54
2018-01-03T09:52:19.437Z,7.63
2018-01-03T09:54:48.786Z,7.74
2018-01-03T09:57:18.002Z,7.87
2018-01-03T09:59:47.209Z,7.93
2018-01-03T10:02:16.418Z,7.98
2018-01-03T10:04:45.611Z,8.07
2018-01-03T10:07:14.810Z,8.15
2018-01-03T10:09:44.025Z,8.21
2018-01-03T10:12:13.200Z,8.21
2018-01-03T10:14:42.393Z,8.23
2018-01-03T10:17:11.589Z,8.24
2018-01-03T10:19:40.816Z,8.22
2018-01-03T10:22:10.003Z,8.20
2018-01-03T10:24:39.220Z,8.17
2018-01-03T10:27:08.443Z,8.13
2018-01-03T10:29:37.642Z,8.09
2018-01-03T10:32:07.730Z,8.07
2018-01-03T10:34:36.911Z,8.08
2018-01-03T10:37:06.116Z,8.09
2018-01-03T10:39:35.349Z,8.11
2018-01-03T10:42:04.550Z,8.08
2018-01-03T10:44:34.494Z,8.05
2018-01-03T10:47:03.681Z,8.07
2018-01-03T10:49:32.878Z,8.05
2018-01-03T10:52:02.075Z,8.04
2018-01-03T10:54:31.262Z,8.03
2018-01-03T10:57:00.455Z,8.01
2018-01-03T10:59:30.432Z,8.05
2018-01-03T11:01:59.630Z,8.06
2018-01-03T11:04:28.824Z,8.04
2018-01-03T11:06:58.015Z,7.95
2018-01-03T11:09:27.234Z,7.91
2018-01-03T11:11:56.420Z,7.82
2018-01-03T11:14:25.613Z,7.75
2018-01-03T11:16:54.787Z,7.72
2018-01-03T11:19:23.975Z,7.62
2018-01-03T11:21:53.248Z,7.59
2018-01-03T11:24:22.427Z,7.55
2018-01-03T11:26:52.443Z,7.53
2018-01-03T11:29:21.670Z,7.47
2018-01-03T11:31:50.850Z,7.45
2018-01-03T11:34:20.050Z,7.43
2018-01-03T11:36:49.380Z,7.40
2018-01-03T11:39:19.326Z,7.35
2018-01-03T11:41:48.522Z,7.28
2018-01-03T11:44:17.740Z,7.22
2018-01-03T11:46:47.713Z,7.15
2018-01-03T11:49:17.069Z,7.10
2018-01-03T11:51:47.051Z,7.08
2018-01-03T11:54:16.302Z,7.06
2018-01-03T11:56:45.485Z,7.04
2018-01-03T11:59:13.872Z,7.02
2018-01-03T12:01:43.808Z,6.98
2018-01-03T12:04:13.016Z,6.95
2018-01-03T12:06:42.309Z,6.95
2018-01-03T12:09:11.532Z,6.90
2018-01-03T12:11:40.742Z,6.88
2018-01-03T12:14:09.950Z,6.85
2018-01-03T12:16:39.115Z,6.84
2018-01-03T12:19:09.141Z,6.85
2018-01-03T12:21:39.311Z,6.82
2018-01-03T12:24:08.513Z,6.79
2018-01-03T12:26:37.697Z,6.81
2018-01-03T12:29:06.907Z,6.83
2018-01-03T12:31:36.874Z,6.81
2018-01-03T12:34:06.089Z,6.83
2018-01-03T12:36:36.149Z,6.84
2018-01-03T12:39:05.392Z,6.84
2018-01-03T12:41:35.496Z,6.87
2018-01-03T12:44:04.754Z,6.85
2018-01-03T12:46:33.995Z,6.85
2018-01-03T12:49:03.210Z,6.84
2018-01-03T12:51:32.427Z,6.85
2018-01-03T12:54:01.643Z,6.86
2018-01-03T12:56:30.851Z,6.86
2018-01-03T12:59:00.111Z,6.86
2018-01-03T13:01:29.395Z,6.87
2018-01-03T13:03:59.370Z,6.87
2018-01-03T13:06:29.410Z,6.88
2018-01-03T13:08:58.626Z,6.91
2018-01-03T13:11:28.598Z,6.88
2018-01-03T13:13:57.831Z,6.89
2018-01-03T13:16:27.054Z,6.89
2018-01-03T13:18:57.060Z,6.91
2018-01-03T13:21:27.040Z,6.92
2018-01-03T13:23:56.327Z,6.95
2018-01-03T13:26:26.237Z,6.95
2018-01-03T13:28:55.443Z,6.94
2018-01-03T13:31:24.643Z,6.99
2018-01-03T13:33:53.895Z,7.00
2018-01-03T13:36:23.831Z,7.03
2018-01-03T13:38:53.066Z,7.04
2018-01-03T13:41:22.233Z,7.05
2018-01-03T13:43:51.447Z,7.09
2018-01-03T13:46:20.691Z,7.12
2018-01-03T13:48:50.676Z,7.14
2018-01-03T13:51:19.917Z,7.15
2018-01-03T13:53:50.035Z,7.17
2018-01-03T13:56:19.250Z,7.18
2018-01-03T13:58:48.485Z,7.23
2018-01-03T14:01:17.749Z,7.27
2018-01-03T14:03:46.970Z,7.28
2018-01-03T14:06:16.179Z,7.31
2018-01-03T14:08:45.395Z,7.35
2018-01-03T14:11:14.647Z,7.39
2018-01-03T14:13:43.835Z,7.44
2018-01-03T14:16:13.034Z,7.44
2018-01-03T14:18:42.269Z,7.49
2018-01-03T14:21:11.585Z,7.49
2018-01-03T14:23:40.805Z,7.48
2018-01-03T14:26:10.886Z,7.47
2018-01-03T14:28:40.086Z,7.51
2018-01-03T14:31:09.299Z,7.46
2018-01-03T14:33:41.559Z,7.43
2018-01-03T14:36:10.878Z,7.41
2018-01-03T14:38:40.082Z,7.41
2018-01-03T14:41:09.496Z,7.39
2018-01-03T14:43:39.526Z,7.39
2018-01-03T14:46:08.782Z,7.39
2018-01-03T14:48:37.988Z,7.40
2018-01-03T14:51:07.982Z,7.41
2018-01-03T14:53:37.232Z,7.43
2018-01-03T14:56:06.414Z,7.42
2018-01-03T14:58:36.802Z,7.41
2018-01-03T15:01:05.976Z,7.39
2018-01-03T15:03:36.035Z,7.36
2018-01-03T15:06:06.182Z,7.35
2018-01-03T15:08:35.434Z,7.30
2018-01-03T15:11:04.652Z,7.28
2018-01-03T15:13:33.823Z,7.26
2018-01-03T15:16:03.042Z,7.22
2018-01-03T15:18:32.262Z,7.21
2018-01-03T15:21:02.215Z,7.18
2018-01-03T15:23:31.401Z,7.19
2018-01-03T15:26:00.706Z,7.22
2018-01-03T15:28:29.898Z,7.25
2018-01-03T15:30:59.127Z,7.22
2018-01-03T15:33:28.326Z,7.21
2018-01-03T15:35:57.590Z,7.23
2018-01-03T15:38:26.840Z,7.26
2018-01-03T15:40:56.848Z,7.28
2018-01-03T15:43:26.064Z,7.29
2018-01-03T15:45:56.001Z,7.32
2018-01-03T15:48:25.206Z,7.35
2018-01-03T15:50:54.383Z,7.36
2018-01-03T15:53:23.622Z,7.39
2018-01-03T15:55:53.703Z,7.38
2018-01-03T15:58:23.138Z,7.38
2018-01-03T16:00:52.411Z,7.42
2018-01-03T16:03:21.632Z,7.42
2018-01-03T16:05:50.997Z,7.42
2018-01-03T16:08:20.454Z,7.46
2018-01-03T16:10:49.828Z,7.44
2018-01-03T16:13:19.006Z,7.44
2018-01-03T16:15:48.226Z,7.46
2018-01-03T16:18:17.415Z,7.47
2018-01-03T16:20:46.631Z,7.45
2018-01-03T16:23:15.880Z,7.46
2018-01-03T16:25:46.080Z,7.48
2018-01-03T16:28:15.263Z,7.48
2018-01-03T16:30:44.539Z,7.46
2018-01-03T16:33:13.790Z,7.42
2018-01-03T16:35:43.947Z,7.36
2018-01-03T16:38:13.156Z,7.38
2018-01-03T16:40:42.425Z,7.39
2018-01-03T16:43:11.646Z,7.37
2018-01-03T16:45:40.911Z,7.36
2018-01-03T16:48:10.934Z,7.34
2018-01-03T16:50:40.187Z,7.37
2018-01-03T16:53:09.391Z,7.41
2018-01-03T16:55:39.423Z,7.45
2018-01-03T16:58:08.684Z,7.42
2018-01-03T17:00:38.014Z,7.40
2018-01-03T17:03:07.267Z,7.41
2018-01-03T17:05:36.464Z,7.45
2018-01-03T17:08:05.755Z,7.45
2018-01-03T17:10:34.952Z,7.45
2018-01-03T17:13:04.306Z,7.40
2018-01-03T17:15:33.530Z,7.35
2018-01-03T17:18:03.522Z,7.30
2018-01-03T17:20:32.700Z,7.28
2018-01-03T17:23:02.022Z,7.29
2018-01-03T17:25:31.255Z,7.31
2018-01-03T17:28:00.523Z,7.35
2018-01-03T17:30:29.837Z,7.36
2018-01-03T17:32:59.842Z,7.34
2018-01-03T17:35:29.071Z,7.39
2018-01-03T17:37:58.278Z,7.40
2018-01-03T17:40:27.547Z,7.33
2018-01-03T17:42:57.650Z,7.33
2018-01-03T17:45:26.852Z,7.28
2018-01-03T17:47:56.855Z,7.22
2018-01-03T17:50:26.854Z,7.15
2018-01-03T17:52:56.188Z,7.13
2018-01-03T17:55:26.175Z,7.14
2018-01-03T17:57:55.381Z,7.13
2018-01-03T18:00:24.627Z,7.12
2018-01-03T18:02:53.818Z,7.10
2018-01-03T18:05:23.024Z,7.13
2018-01-03T18:07:52.239Z,7.14
2018-01-03T18:10:22.308Z,7.12
2018-01-03T18:12:51.522Z,7.13
2018-01-03T18:15:20.723Z,7.09
2018-01-03T18:17:50.071Z,7.10
2018-01-03T18:20:19.308Z,7.06
2018-01-03T18:22:49.306Z,7.07
2018-01-03T18:25:18.490Z,7.11
2018-01-03T18:27:47.745Z,7.15
2018-01-03T18:30:17.720Z,7.22
2018-01-03T18:32:47.754Z,7.26
2018-01-03T18:35:17.779Z,7.31
2018-01-03T18:37:47.058Z,7.32
2018-01-03T18:40:17.089Z,7.35
2018-01-03T18:42:46.317Z,7.39
2018-01-03T18:45:15.536Z,7.40
2018-01-03T18:47:44.813Z,7.41
2018-01-03T18:50:14.029Z,7.43
2018-01-03T18:52:43.206Z,7.49
2018-01-03T18:55:12.425Z,7.51
2018-01-03T18:57:41.640Z,7.49
2018-01-03T19:00:10.908Z,7.46
2018-01-03T19:02:40.169Z,7.47
2018-01-03T19:05:09.531Z,7.49
2018-01-03T19:07:38.838Z,7.53
2018-01-03T19:10:08.094Z,7.55
2018-01-03T19:12:37.310Z,7.59
2018-01-03T19:15:06.508Z,7.58
2018-01-03T19:17:35.819Z,7.58
2018-01-03T19:20:05.136Z,7.57
2018-01-03T19:22:34.347Z,7.55
2018-01-03T19:25:04.357Z,7.54
2018-01-03T19:27:33.585Z,7.46
2018-01-03T19:30:03.563Z,7.42
2018-01-03T19:32:33.758Z,7.40
2018-01-03T19:35:02.985Z,7.36
2018-01-03T19:37:33.294Z,7.33
2018-01-03T19:40:02.730Z,7.30
2018-01-03T19:42:32.867Z,7.30
2018-01-03T19:45:02.241Z,7.34
2018-01-03T19:47:31.874Z,7.30
2018-01-03T19:50:01.354Z,7.35
2018-01-03T19:52:30.583Z,7.37
2018-01-03T19:55:00.048Z,7.39
2018-01-03T19:57:29.731Z,7.42
2018-01-03T19:59:58.950Z,7.42
2018-01-03T20:02:28.280Z,7.46
2018-01-03T20:04:57.457Z,7.47
2018-01-03T20:07:27.579Z,7.47
2018-01-03T20:09:57.847Z,7.45
2018-01-03T20:12:27.290Z,7.46
2018-01-03T20:14:56.913Z,7.46
2018-01-03T20:17:26.292Z,7.47
2018-01-03T20:19:55.990Z,7.47
2018-01-03T20:22:25.815Z,7.48
2018-01-03T20:24:55.263Z,7.53
2018-01-03T20:27:24.453Z,7.58
2018-01-03T20:29:53.663Z,7.61
2018-01-03T20:32:22.873Z,7.62
2018-01-03T20:34:53.381Z,7.66
2018-01-03T20:37:23.216Z,7.67
2018-01-03T20:39:53.080Z,7.72
2018-01-03T20:42:23.081Z,7.73
2018-01-03T20:44:52.350Z,7.75
2018-01-03T20:47:21.588Z,7.75
2018-01-03T20:49:50.766Z,7.79
2018-01-03T20:52:21.356Z,7.82
2018-01-03T20:54:51.530Z,7.85
2018-01-03T20:57:21.289Z,7.89
2018-01-03T20:59:51.932Z,7.91
2018-01-03T21:02:21.290Z,7.91
2018-01-03T21:04:51.521Z,7.87
2018-01-03T21:07:21.489Z,7.85
2018-01-03T21:09:51.390Z,7.86
2018-01-03T21:12:21.258Z,7.83
2018-01-03T21:14:50.598Z,7.82
2018-01-03T21:17:19.819Z,7.80
2018-01-03T21:19:49.252Z,7.77
2018-01-03T21:22:19.268Z,7.70
2018-01-03T21:24:49.237Z,7.66
2018-01-03T21:27:18.845Z,7.61
2018-01-03T21:29:48.196Z,7.59
2018-01-03T21:32:18.162Z,7.53
2018-01-03T21:34:47.481Z,7.53
2018-01-03T21:37:16.653Z,7.54
2018-01-03T21:39:45.854Z,7.54
2018-01-03T21:42:15.080Z,7.56
2018-01-03T21:44:44.349Z,7.58
2018-01-03T21:47:14.520Z,7.59
2018-01-03T21:49:44.008Z,7.61
2018-01-03T21:52:13.459Z,7.62
2018-01-03T21:54:42.855Z,7.63
2018-01-03T21:57:12.293Z,7.62
2018-01-03T21:59:41.523Z,7.60
2018-01-03T22:02:11.489Z,7.59
2018-01-03T22:04:40.764Z,7.61
2018-01-03T22:07:10.855Z,7.61
2018-01-03T22:09:40.918Z,7.62
2018-01-03T22:12:10.272Z,7.62
2018-01-03T22:14:39.497Z,7.60
2018-01-03T22:17:08.727Z,7.62
2018-01-03T22:19:38.001Z,7.63
2018-01-03T22:22:07.311Z,7.65
2018-01-03T22:24:36.546Z,7.65
2018-01-03T22:27:06.543Z,7.64
2018-01-03T22:29:35.824Z,7.65
2018-01-03T22:32:05.003Z,7.64
2018-01-03T22:34:34.244Z,7.63
2018-01-03T22:37:03.533Z,7.64
2018-01-03T22:39:32.733Z,7.60
2018-01-03T22:42:01.946Z,7.53
2018-01-03T22:44:32.678Z,7.46
2018-01-03T22:47:01.927Z,7.45
2018-01-03T22:49:31.878Z,7.43
2018-01-03T22:52:01.063Z,7.42
2018-01-03T22:54:30.285Z,7.37
2018-01-03T22:57:00.982Z,7.37
2018-01-03T22:59:30.500Z,7.40
2018-01-03T23:01:59.711Z,7.40
2018-01-03T23:04:28.915Z,7.38
2018-01-03T23:06:58.948Z,7.38
2018-01-03T23:09:28.987Z,7.36
2018-01-03T23:11:58.206Z,7.38
2018-01-03T23:14:27.409Z,7.35
2018-01-03T23:16:56.620Z,7.36
2018-01-03T23:19:25.844Z,7.37
2018-01-03T23:21:55.198Z,7.40
2018-01-03T23:24:24.515Z,7.41
2018-01-03T23:26:53.806Z,7.40
2018-01-03T23:29:22.979Z,7.42
2018-01-03T23:31:52.275Z,7.46
2018-01-03T23:34:22.312Z,7.48
2018-01-03T23:36:51.531Z,7.51
2018-01-03T23:39:20.743Z,7.52
2018-01-03T23:41:50.005Z,7.53
2018-01-03T23:44:19.923Z,7.56
2018-01-03T23:46:49.128Z,7.59
2018-01-03T23:49:18.314Z,7.59
2018-01-03T23:51:47.556Z,7.62
2018-01-03T23:54:16.787Z,7.66
2018-01-03T23:56:46.000Z,7.65
2018-01-03T23:59:15.259Z,7.64
